createdAt,value
2019-04-03T00:02:10.257Z,143501.33
2019-04-03T00:07:06.187Z,143511.86
2019-04-03T00:12:02.316Z,143498.97
2019-04-03T00:16:58.364Z,143475.55
2019-04-03T00:21:54.237Z,143488.44
2019-04-03T00:26:51.867Z,143475.55
2019-04-03T00:31:48.892Z,143445.06
2019-04-03T00:36:44.821Z,143467.31
2019-04-03T00:41:40.744Z,143452.08
2019-04-03T00:46:36.668Z,143411.06
2019-04-03T00:51:32.591Z,143426.31
2019-04-03T00:56:28.594Z,143393.47
2019-04-03T01:01:26.154Z,143420.44
2019-04-03T01:06:22.350Z,143419.28
2019-04-03T01:11:18.270Z,143407.56
2019-04-03T01:16:14.288Z,143423.95
2019-04-03T01:21:10.220Z,143445.06
2019-04-03T01:26:06.249Z,143453.28
2019-04-03T01:31:02.371Z,143555.23
2019-04-03T01:35:58.342Z,143402.84
2019-04-03T01:40:54.265Z,143466.17
2019-04-03T01:45:50.300Z,143503.67
2019-04-03T01:50:46.326Z,143488.44
2019-04-03T01:55:42.437Z,143496.61
2019-04-03T02:00:38.823Z,143484.92
2019-04-03T02:05:34.811Z,143375.92
2019-04-03T02:10:30.920Z,143299.73
2019-04-03T02:15:27.166Z,143232.94
2019-04-03T02:20:26.119Z,143313.81
2019-04-03T02:25:22.105Z,143220.06
2019-04-03T02:30:18.236Z,143296.19
2019-04-03T02:35:14.258Z,143273.94
2019-04-03T02:40:10.390Z,143292.67
2019-04-03T02:45:06.618Z,143299.73
2019-04-03T02:50:03.845Z,143206.03
2019-04-03T02:55:00.426Z,143262.25
2019-04-03T02:59:58.782Z,143291.52
2019-04-03T03:04:55.258Z,143262.25
2019-04-03T03:09:51.864Z,143291.52
2019-04-03T03:14:48.220Z,143302.09
2019-04-03T03:19:44.911Z,143304.45
2019-04-03T03:24:42.806Z,143304.45
2019-04-03T03:29:39.381Z,143290.38
2019-04-03T03:34:51.776Z,143222.42
2019-04-03T03:39:33.917Z,143241.16
2019-04-03T03:44:30.065Z,143248.17
2019-04-03T03:49:26.976Z,143236.45
2019-04-03T03:54:26.279Z,143257.55
2019-04-03T03:59:23.145Z,143286.81
2019-04-03T04:04:19.442Z,143440.34
2019-04-03T04:09:17.449Z,143467.31
2019-04-03T04:14:13.502Z,143462.66
2019-04-03T04:19:09.956Z,143438.03
2019-04-03T04:24:13.467Z,143398.19
2019-04-03T04:29:10.736Z,143414.58
2019-04-03T04:34:07.372Z,143366.55
2019-04-03T04:39:06.602Z,143323.19
2019-04-03T04:44:02.929Z,143302.09
2019-04-03T04:48:58.854Z,143281.00
2019-04-03T04:53:54.812Z,143258.70
2019-04-03T04:58:50.755Z,143245.81
2019-04-03T05:03:46.687Z,143235.30
2019-04-03T05:08:42.752Z,143203.69
2019-04-03T05:13:38.678Z,143222.42
2019-04-03T05:18:34.610Z,143370.06
2019-04-03T05:23:30.541Z,143271.63
2019-04-03T05:28:26.472Z,143340.78
2019-04-03T05:33:22.429Z,143271.63
2019-04-03T05:38:18.363Z,143228.28
2019-04-03T05:43:14.284Z,143311.47
2019-04-03T05:48:12.594Z,143306.80
2019-04-03T05:53:08.065Z,143366.55
2019-04-03T05:58:04.134Z,143336.08
2019-04-03T06:03:00.235Z,143318.53
2019-04-03T06:07:56.247Z,143348.95
2019-04-03T06:12:52.163Z,143367.70
2019-04-03T06:17:50.319Z,143426.31
2019-04-03T06:22:45.909Z,143412.22
2019-04-03T06:27:45.475Z,143453.28
2019-04-03T06:32:40.184Z,143501.33
2019-04-03T06:37:36.115Z,143571.66
2019-04-03T06:42:32.037Z,143740.59
2019-04-03T06:47:27.955Z,143649.06
2019-04-03T06:52:24.048Z,143698.33
2019-04-03T06:57:20.002Z,143697.12
2019-04-03T07:02:15.921Z,143737.08
2019-04-03T07:07:11.841Z,143724.12
2019-04-03T07:12:07.760Z,143735.92
2019-04-03T07:17:05.872Z,143727.64
2019-04-03T07:22:01.510Z,143775.78
2019-04-03T07:26:57.430Z,143703.00
2019-04-03T07:31:55.147Z,143691.25
2019-04-03T07:36:51.219Z,143705.36
2019-04-03T07:41:47.321Z,143677.22
2019-04-03T07:46:43.583Z,143695.97
2019-04-03T07:51:39.634Z,143637.31
2019-04-03T07:56:35.563Z,143601.00
2019-04-03T08:01:31.501Z,143562.27
2019-04-03T08:06:27.428Z,143542.34
2019-04-03T08:11:23.346Z,143575.16
2019-04-03T08:16:19.488Z,143581.03
2019-04-03T08:21:17.555Z,143664.31
2019-04-03T08:26:14.527Z,143718.27
2019-04-03T08:31:11.869Z,143700.64
2019-04-03T08:36:22.561Z,143738.23
2019-04-03T08:41:08.019Z,143741.80
2019-04-03T08:46:04.019Z,143761.72
2019-04-03T08:51:02.324Z,143778.14
2019-04-03T08:55:58.071Z,143837.98
2019-04-03T09:00:54.065Z,143796.91
2019-04-03T09:05:50.957Z,143767.59
2019-04-03T09:10:47.807Z,143785.16
2019-04-03T09:15:44.640Z,143739.44
2019-04-03T09:20:41.085Z,143732.41
2019-04-03T09:25:38.615Z,143775.78
2019-04-03T09:30:34.748Z,143764.08
2019-04-03T09:35:32.425Z,143721.77
2019-04-03T09:40:28.682Z,143706.52
2019-04-03T09:45:26.082Z,143659.59
2019-04-03T09:50:23.018Z,143658.44
2019-04-03T09:55:19.149Z,143623.27
2019-04-03T10:00:36.857Z,143588.09
2019-04-03T10:05:32.893Z,143558.75
2019-04-03T10:10:29.055Z,143572.84
2019-04-03T10:15:24.993Z,143514.22
2019-04-03T10:25:45.295Z,143534.13
2019-04-03T10:30:41.258Z,143517.72
2019-04-03T10:35:39.328Z,143493.09
2019-04-03T10:40:35.415Z,143510.70
2019-04-03T10:45:33.013Z,143523.59
2019-04-03T10:50:28.936Z,143447.41
2019-04-03T10:55:25.845Z,143391.16
2019-04-03T11:00:24.633Z,143357.17
2019-04-03T11:05:20.688Z,143380.59
2019-04-03T11:10:16.735Z,143363.03
2019-04-03T11:15:54.673Z,143306.80
2019-04-03T11:20:51.067Z,143290.38
2019-04-03T11:25:48.473Z,143245.81
2019-04-03T11:30:44.400Z,143295.03
2019-04-03T11:36:24.793Z,143272.78
2019-04-03T11:41:22.731Z,143272.78
2019-04-03T11:46:17.676Z,143237.66
2019-04-03T11:51:13.595Z,143220.06
2019-04-03T11:56:12.367Z,143223.58
2019-04-03T12:06:11.360Z,143119.37
2019-04-03T12:11:07.534Z,143149.83
2019-04-03T12:16:26.228Z,143126.39
2019-04-03T12:21:22.815Z,143138.11
2019-04-03T12:26:20.794Z,143161.50
2019-04-03T12:31:16.626Z,143136.95
2019-04-03T12:36:13.509Z,143203.69
2019-04-03T12:41:10.365Z,143262.25
2019-04-03T12:46:07.327Z,143351.31
2019-04-03T12:51:05.683Z,143344.30
2019-04-03T12:56:03.951Z,143323.19
2019-04-03T13:01:21.920Z,143365.34
2019-04-03T13:06:20.642Z,143454.44
2019-04-03T13:11:58.546Z,143439.19
2019-04-03T13:16:54.481Z,143510.70
2019-04-03T13:21:50.533Z,143585.73
2019-04-03T13:26:46.470Z,143633.81
2019-04-03T13:31:44.472Z,143627.94
2019-04-03T13:36:40.330Z,143672.48
2019-04-03T13:41:36.255Z,143646.70
2019-04-03T13:46:32.575Z,143597.47
2019-04-03T13:51:29.056Z,143681.87
2019-04-03T13:56:27.606Z,143782.84
2019-04-03T14:01:27.553Z,143876.73
2019-04-03T14:06:22.335Z,144059.89
2019-04-03T14:11:18.464Z,143891.97
2019-04-03T14:16:21.711Z,143727.64
2019-04-03T14:21:14.181Z,143710.03
2019-04-03T14:26:12.989Z,143773.47
2019-04-03T14:31:50.093Z,143623.27
2019-04-03T14:36:46.132Z,143647.91
2019-04-03T14:41:42.095Z,143703.00
2019-04-03T14:46:38.102Z,143869.66
2019-04-03T14:51:34.213Z,144026.98
2019-04-03T14:56:33.262Z,143928.38
2019-04-03T15:01:28.775Z,143910.75
2019-04-03T15:06:24.708Z,143867.34
2019-04-03T15:11:21.981Z,143951.83
2019-04-03T15:16:19.566Z,144068.13
2019-04-03T15:26:21.754Z,143900.19
2019-04-03T15:37:14.151Z,144057.53
2019-04-03T15:42:32.360Z,144022.31
2019-04-03T15:47:36.568Z,144077.53
2019-04-03T15:52:28.386Z,144125.72
2019-04-03T15:57:25.458Z,144070.44
2019-04-03T16:02:21.593Z,144091.59
2019-04-03T16:07:18.495Z,143988.25
2019-04-03T16:12:14.681Z,144024.66
2019-04-03T16:17:11.243Z,143987.09
2019-04-03T16:22:07.270Z,143737.08
2019-04-03T16:27:03.370Z,143656.08
2019-04-03T16:31:59.552Z,143632.66
2019-04-03T16:36:56.633Z,143585.73
2019-04-03T16:41:53.842Z,143618.55
2019-04-03T16:46:49.797Z,143627.94
2019-04-03T16:51:46.992Z,143665.47
2019-04-03T16:56:43.222Z,143610.38
2019-04-03T17:01:39.621Z,143620.91
2019-04-03T17:06:36.647Z,143642.03
2019-04-03T17:11:32.670Z,143561.11
2019-04-03T17:16:28.609Z,143634.97
2019-04-03T17:21:27.306Z,143557.59
2019-04-03T17:26:22.634Z,143649.06
2019-04-03T17:31:20.029Z,143529.45
2019-04-03T17:36:19.171Z,143544.70
2019-04-03T17:41:14.377Z,143647.91
2019-04-03T17:46:10.392Z,143597.47
2019-04-03T17:51:06.315Z,143513.06
2019-04-03T17:56:02.522Z,143572.84
2019-04-03T18:01:01.062Z,143475.55
2019-04-03T18:06:03.587Z,143563.47
2019-04-03T18:16:18.610Z,143521.23
2019-04-03T18:21:15.148Z,143518.88
2019-04-03T18:26:12.606Z,143552.89
2019-04-03T18:31:08.545Z,143537.64
2019-04-03T18:36:04.501Z,143527.09
2019-04-03T18:41:00.436Z,143544.70
2019-04-03T18:46:00.008Z,143475.55
2019-04-03T18:50:54.344Z,143445.06
2019-04-03T18:55:50.261Z,143545.86
2019-04-03T19:00:46.190Z,143534.13
2019-04-03T19:05:42.904Z,143559.95
2019-04-03T19:10:39.335Z,143491.94
2019-04-03T19:15:35.255Z,143336.08
2019-04-03T19:20:31.184Z,143336.08
2019-04-03T19:25:29.654Z,143331.41
2019-04-03T19:30:28.433Z,143331.41
2019-04-03T19:35:23.579Z,143295.03
2019-04-03T19:40:19.567Z,143318.53
2019-04-03T19:45:15.686Z,143316.17
2019-04-03T19:50:11.847Z,143320.84
2019-04-03T19:55:19.436Z,143232.94
2019-04-03T20:00:15.756Z,143175.58
2019-04-03T20:05:12.514Z,143182.59
2019-04-03T20:10:08.684Z,143203.69
2019-04-03T20:15:05.809Z,143203.69
2019-04-03T20:20:03.827Z,143237.66
2019-04-03T20:25:00.747Z,143156.84
2019-04-03T20:29:56.797Z,143138.11
2019-04-03T20:34:52.806Z,143121.73
2019-04-03T20:39:48.766Z,143159.19
2019-04-03T20:44:47.920Z,143181.44
2019-04-03T20:49:43.841Z,143283.30
2019-04-03T20:54:41.224Z,143132.25
2019-04-03T20:59:37.250Z,143098.30
2019-04-03T21:04:33.269Z,143105.31
2019-04-03T21:09:30.421Z,143159.19
2019-04-03T21:14:26.663Z,143142.78
2019-04-03T21:19:22.579Z,143136.95
2019-04-03T21:24:23.764Z,143128.75
2019-04-03T21:29:19.807Z,143286.81
2019-04-03T21:34:15.731Z,143271.63
2019-04-03T21:39:13.006Z,143135.77
2019-04-03T21:44:09.709Z,143227.08
2019-04-03T21:49:05.710Z,143213.05
2019-04-03T21:59:19.020Z,143201.33
2019-04-03T22:04:14.940Z,143179.09
2019-04-03T22:09:11.765Z,143147.47
2019-04-03T22:14:10.698Z,143093.64
2019-04-03T22:19:05.808Z,143138.11
2019-04-03T22:24:08.208Z,143100.66
2019-04-03T22:29:04.330Z,143098.30
2019-04-03T22:34:00.243Z,143053.83
2019-04-03T22:38:56.159Z,143046.81
2019-04-03T22:43:52.070Z,143074.91
2019-04-03T22:48:47.987Z,143197.81
2019-04-03T22:53:43.933Z,143156.84
2019-04-03T22:58:39.931Z,143086.58
2019-04-03T23:03:35.856Z,143058.48
2019-04-03T23:08:32.680Z,143074.91
2019-04-03T23:13:28.688Z,143065.55
2019-04-03T23:18:24.736Z,143073.70
2019-04-03T23:23:20.640Z,143104.16
2019-04-03T23:28:16.560Z,143110.02
2019-04-03T23:33:12.569Z,143085.44
2019-04-03T23:38:08.487Z,143063.19
2019-04-03T23:43:04.480Z,143115.87
2019-04-03T23:48:00.357Z,143064.34
2019-04-03T23:52:56.375Z,143021.08
2019-04-03T23:57:52.319Z,143100.66
